createdAt,value
2018-07-12T00:00:23.789Z,19.53
2018-07-12T00:02:50.831Z,20.83
2018-07-12T00:05:17.904Z,15.40
2018-07-12T00:07:44.513Z,19.70
2018-07-12T00:10:11.612Z,16.00
2018-07-12T00:12:38.242Z,17.20
2018-07-12T00:15:05.193Z,16.20
2018-07-12T00:17:31.948Z,18.97
2018-07-12T00:19:58.680Z,13.97
2018-07-12T00:22:25.629Z,15.17
2018-07-12T00:24:52.361Z,17.57
2018-07-12T00:27:19.084Z,14.07
2018-07-12T00:29:45.780Z,15.70
2018-07-12T00:32:12.912Z,16.40
2018-07-12T00:34:39.676Z,17.10
2018-07-12T00:37:06.320Z,17.60
2018-07-12T00:39:33.041Z,16.83
2018-07-12T00:41:59.745Z,21.03
2018-07-12T00:44:26.584Z,16.60
2018-07-12T00:46:53.364Z,16.97
2018-07-12T00:49:20.071Z,19.87
2018-07-12T00:51:46.751Z,14.93
2018-07-12T00:54:20.304Z,12.47
2018-07-12T00:56:47.082Z,12.57
2018-07-12T00:59:13.797Z,11.93
2018-07-12T01:01:40.601Z,8.50
2018-07-12T01:04:07.454Z,9.77
2018-07-12T01:06:34.128Z,10.17
2018-07-12T01:09:00.940Z,11.30
2018-07-12T01:11:27.753Z,11.43
2018-07-12T01:13:54.352Z,11.57
2018-07-12T01:16:21.108Z,14.70
2018-07-12T01:18:48.161Z,11.57
2018-07-12T01:21:14.795Z,12.53
2018-07-12T01:23:41.536Z,15.13
2018-07-12T01:26:08.296Z,11.50
2018-07-12T01:28:34.888Z,15.20
2018-07-12T01:31:01.514Z,12.83
2018-07-12T01:33:28.142Z,12.47
2018-07-12T01:35:55.355Z,15.57
2018-07-12T01:38:22.120Z,10.10
2018-07-12T01:40:48.826Z,11.63
2018-07-12T01:43:15.523Z,9.27
2018-07-12T01:45:42.139Z,11.90
2018-07-12T01:48:08.823Z,11.23
2018-07-12T01:50:35.526Z,10.40
2018-07-12T01:53:02.297Z,9.53
2018-07-12T01:55:28.887Z,11.97
2018-07-12T01:57:55.977Z,11.93
2018-07-12T02:00:22.865Z,13.60
2018-07-12T02:02:49.467Z,14.37
2018-07-12T02:05:16.189Z,12.50
2018-07-12T02:07:42.844Z,9.47
2018-07-12T02:10:09.499Z,14.07
2018-07-12T02:12:36.705Z,12.63
2018-07-12T02:15:03.366Z,15.93
2018-07-12T02:17:30.025Z,12.43
2018-07-12T02:19:59.550Z,11.43
2018-07-12T02:22:26.909Z,15.73
2018-07-12T02:24:54.598Z,12.60
2018-07-12T02:27:21.872Z,10.83
2018-07-12T02:29:48.888Z,10.97
2018-07-12T02:32:17.683Z,12.87
2018-07-12T02:34:46.010Z,11.20
2018-07-12T02:37:13.066Z,10.33
2018-07-12T02:39:40.901Z,11.20
2018-07-12T02:42:09.136Z,13.07
2018-07-12T02:44:36.320Z,11.87
2018-07-12T02:47:03.360Z,10.77
2018-07-12T02:49:30.573Z,10.20
2018-07-12T02:51:57.253Z,11.47
2018-07-12T02:54:24.537Z,11.57
2018-07-12T02:56:51.435Z,10.97
2018-07-12T02:59:18.124Z,11.70
2018-07-12T03:01:44.968Z,12.30
2018-07-12T03:04:11.598Z,14.83
2018-07-12T03:06:38.204Z,10.17
2018-07-12T03:09:06.053Z,11.00
2018-07-12T03:11:33.269Z,13.40
2018-07-12T03:13:59.988Z,13.90
2018-07-12T03:16:26.600Z,11.47
2018-07-12T03:18:53.604Z,10.90
2018-07-12T03:21:20.584Z,11.03
2018-07-12T03:23:47.681Z,13.77
2018-07-12T03:26:14.666Z,12.07
2018-07-12T03:28:41.277Z,14.07
2018-07-12T03:31:08.243Z,16.00
2018-07-12T03:33:34.851Z,12.87
2018-07-12T03:36:01.593Z,12.30
2018-07-12T03:38:28.201Z,13.13
2018-07-12T03:40:54.964Z,12.27
2018-07-12T03:43:21.566Z,14.43
2018-07-12T03:45:48.600Z,12.10
2018-07-12T03:48:15.229Z,15.80
2018-07-12T03:50:41.841Z,15.63
2018-07-12T03:53:08.486Z,16.60
2018-07-12T03:55:35.112Z,15.63
2018-07-12T03:58:01.789Z,17.77
2018-07-12T04:00:28.453Z,12.67
2018-07-12T04:02:55.120Z,19.13
2018-07-12T04:05:22.517Z,14.93
2018-07-12T04:07:49.192Z,14.70
2018-07-12T04:10:15.837Z,13.73
2018-07-12T04:12:42.505Z,17.17
2018-07-12T04:15:09.161Z,12.13
2018-07-12T04:17:35.815Z,15.70
2018-07-12T04:20:03.756Z,13.47
2018-07-12T04:22:31.659Z,17.57
2018-07-12T04:24:58.353Z,19.30
2018-07-12T04:27:25.503Z,17.03
2018-07-12T04:29:53.582Z,15.33
2018-07-12T04:32:20.301Z,16.17
2018-07-12T04:34:47.811Z,15.93
2018-07-12T04:37:14.641Z,17.43
2018-07-12T04:39:41.632Z,13.63
2018-07-12T04:42:08.384Z,15.40
2018-07-12T04:44:35.001Z,16.30
2018-07-12T04:47:02.096Z,17.27
2018-07-12T04:49:28.684Z,21.97
2018-07-12T04:51:56.527Z,21.30
2018-07-12T04:54:23.552Z,16.77
2018-07-12T04:56:50.169Z,17.27
2018-07-12T04:59:17.873Z,17.63
2018-07-12T05:01:44.820Z,17.73
2018-07-12T05:04:11.583Z,18.27
2018-07-12T05:06:38.419Z,16.87
2018-07-12T05:09:06.367Z,15.43
2018-07-12T05:11:33.058Z,12.80
2018-07-12T05:13:59.840Z,17.70
2018-07-12T05:16:26.561Z,17.70
2018-07-12T05:18:53.190Z,14.67
2018-07-12T05:21:19.819Z,22.40
2018-07-12T05:23:46.661Z,13.50
2018-07-12T05:26:14.344Z,23.00
2018-07-12T05:28:41.054Z,21.83
2018-07-12T05:31:07.713Z,19.27
2018-07-12T05:33:34.501Z,27.50
2018-07-12T05:36:57.603Z,20.83
2018-07-12T05:39:26.065Z,28.73
2018-07-12T05:41:54.430Z,24.70
2018-07-12T05:44:23.136Z,26.30
2018-07-12T05:46:51.618Z,30.90
2018-07-12T05:49:20.558Z,20.67
2018-07-12T05:51:49.057Z,26.97
2018-07-12T05:54:19.065Z,25.50
2018-07-12T05:56:47.933Z,21.50
2018-07-12T05:59:16.989Z,20.47
2018-07-12T06:01:57.026Z,26.70
2018-07-12T06:04:25.500Z,25.37
2018-07-12T06:06:54.514Z,25.67
2018-07-12T06:09:23.014Z,26.27
2018-07-12T06:11:51.657Z,25.37
2018-07-12T06:14:20.183Z,25.47
2018-07-12T06:16:48.610Z,23.67
2018-07-12T06:19:17.267Z,29.10
2018-07-12T06:21:45.801Z,27.60
2018-07-12T06:24:14.639Z,26.87
2018-07-12T06:26:43.124Z,21.90
2018-07-12T06:29:11.679Z,23.50
2018-07-12T06:31:40.192Z,22.63
2018-07-12T06:34:09.077Z,22.07
2018-07-12T06:36:37.610Z,26.70
2018-07-12T06:39:09.023Z,18.83
2018-07-12T06:41:37.667Z,19.97
2018-07-12T06:44:06.458Z,18.20
2018-07-12T06:46:35.169Z,26.87
2018-07-12T06:49:04.158Z,24.43
2018-07-12T06:51:33.415Z,27.73
2018-07-12T06:54:02.464Z,23.17
2018-07-12T06:56:31.016Z,25.13
2018-07-12T06:58:59.636Z,24.00
2018-07-12T07:01:28.131Z,27.33
2018-07-12T07:03:56.797Z,20.57
2018-07-12T07:06:25.285Z,23.73
2018-07-12T07:08:53.930Z,25.33
2018-07-12T07:11:22.540Z,25.47
2018-07-12T07:13:51.075Z,18.87
2018-07-12T07:16:19.867Z,24.33
2018-07-12T07:18:48.440Z,19.20
2018-07-12T07:21:17.233Z,17.97
2018-07-12T07:23:45.935Z,22.83
2018-07-12T07:26:14.632Z,22.17
2018-07-12T07:28:43.117Z,30.37
2018-07-12T07:31:11.635Z,22.57
2018-07-12T07:33:40.050Z,20.90
2018-07-12T07:36:08.785Z,21.37
2018-07-12T07:38:37.440Z,19.50
2018-07-12T07:41:06.413Z,22.50
2018-07-12T07:43:34.829Z,22.67
2018-07-12T07:46:03.450Z,21.10
2018-07-12T07:48:31.921Z,22.57
2018-07-12T07:51:00.526Z,26.47
2018-07-12T07:53:29.056Z,27.83
2018-07-12T07:55:58.155Z,23.33
2018-07-12T07:58:26.894Z,30.73
2018-07-12T08:00:55.566Z,24.30
2018-07-12T08:03:24.113Z,29.03
2018-07-12T08:05:52.564Z,27.60
2018-07-12T08:08:21.188Z,23.40
2018-07-12T08:10:49.698Z,20.37
2018-07-12T08:13:18.213Z,21.37
2018-07-12T08:15:46.625Z,24.90
2018-07-12T08:18:17.029Z,27.10
2018-07-12T08:20:45.592Z,25.00
2018-07-12T08:23:14.173Z,24.47
2018-07-12T08:25:42.764Z,25.13
2018-07-12T08:28:20.778Z,21.50
2018-07-12T08:30:49.296Z,21.57
2018-07-12T08:33:17.620Z,24.10
2018-07-12T08:35:46.541Z,23.77
2018-07-12T08:38:15.612Z,20.27
2018-07-12T08:40:44.129Z,20.93
2018-07-12T08:43:12.834Z,16.07
2018-07-12T08:45:41.284Z,14.30
2018-07-12T08:48:09.872Z,14.33
2018-07-12T08:50:38.519Z,14.90
2018-07-12T08:53:07.402Z,20.40
2018-07-12T08:55:35.650Z,20.63
2018-07-12T08:58:04.031Z,15.63
2018-07-12T09:00:32.373Z,24.07
2018-07-12T09:03:01.095Z,21.03
2018-07-12T09:05:29.491Z,17.80
2018-07-12T09:07:58.033Z,14.60
2018-07-12T09:10:27.027Z,14.83
2018-07-12T09:12:55.672Z,14.20
2018-07-12T09:15:24.405Z,15.43
2018-07-12T09:17:52.878Z,13.90
2018-07-12T09:20:21.513Z,17.27
2018-07-12T09:22:50.468Z,17.93
2018-07-12T09:25:19.391Z,11.73
2018-07-12T09:27:48.221Z,17.07
2018-07-12T09:30:16.645Z,16.10
2018-07-12T09:32:45.080Z,16.53
2018-07-12T09:35:13.824Z,16.23
2018-07-12T09:37:42.311Z,17.60
2018-07-12T09:40:11.070Z,18.93
2018-07-12T09:42:39.617Z,16.77
2018-07-12T09:45:08.344Z,19.77
2018-07-12T09:47:36.919Z,20.33
2018-07-12T09:50:05.904Z,19.60
2018-07-12T09:52:34.878Z,20.50
